Beaupre, Canada
Current Conditions -  °F | °C
As of 3:00 AM on Wednesday 22 Oct 2014 (Local Time) from CYQB Reporting Station
Overcast Overcast  
Wind Chill: 37°   Ceiling: 6000
Heat Index: 45°   Visibility: 15mi
Dew Point: 30°   Wind: 16mph
Humidity: 57%   Direction: 50°NE
Pressure: 30.28"   Gusts: 28mph
Location:  47.05°N, 70.89°W
Report Text: CYQB 220700Z 05014G24KT 15SM OVC060 07/M01 A3028 RMK SC8 SLP256
Loading
Personal Weather Stations






























Interactive Weather Map
Tropical Storm Tracking
New forecast layout! Learn more

10-Day Weather Forecast

Advertisements
Track Severe Weather on mobile